Time;durP1;ratioP1;P1;durP2;ratioP2;P2;SDS_P1;SDS_P2;PMS_P1;PMS_P2;Temp;Humidity;BMP_temperature;BMP_pressure;BME280_temperature;BME280_humidity;BME280_pressure;Samples;Min_cycle;Max_cycle;Signal;HPM_P1;HPM_P2
2021/06/19 00:00:31;;;;;;;5.80;5.30;;;;;;;21.42;58.58;96667.44;1659872;85;20946;-80
2021/06/19 00:02:59;;;;;;;7.03;4.83;;;;;;;21.38;59.44;96670.82;1660796;85;21042;-80
2021/06/19 00:05:25;;;;;;;4.92;4.40;;;;;;;21.32;60.01;96671.80;1644848;85;21331;-80
2021/06/19 00:07:52;;;;;;;4.47;4.08;;;;;;;21.24;60.23;96670.33;1638385;85;21060;-80
2021/06/19 00:10:18;;;;;;;8.55;4.80;;;;;;;21.20;60.19;96671.86;1639902;85;20994;-80
2021/06/19 00:12:44;;;;;;;5.33;4.85;;;;;;;21.17;60.42;96671.02;1663038;85;21331;-80
2021/06/19 00:15:13;;;;;;;6.60;5.12;;;;;;;21.13;60.73;96669.87;1678281;85;20935;-79
2021/06/19 00:17:39;;;;;;;6.03;5.42;;;;;;;21.02;60.86;96672.11;1679133;85;20942;-80
2021/06/19 00:20:12;;;;;;;5.00;4.50;;;;;;;20.92;60.74;96673.53;1672321;85;20970;-80
2021/06/19 00:22:38;;;;;;;4.75;4.35;;;;;;;20.85;61.06;96674.22;1671505;85;21056;-80
2021/06/19 00:25:06;;;;;;;5.10;4.65;;;;;;;20.76;61.31;96670.88;1668210;85;20923;-81
2021/06/19 00:27:31;;;;;;;4.85;4.45;;;;;;;20.65;61.41;96673.86;1695193;84;21033;-80
2021/06/19 00:29:57;;;;;;;4.78;4.33;;;;;;;20.58;61.59;96682.47;1665968;86;20990;-80
2021/06/19 00:32:23;;;;;;;4.45;4.05;;;;;;;20.53;62.01;96681.06;1647981;86;21326;-80
2021/06/19 00:34:48;;;;;;;5.33;4.78;;;;;;;20.44;62.26;96670.59;1679375;85;20977;-80
2021/06/19 00:37:14;;;;;;;5.55;4.75;;;;;;;20.37;62.39;96668.88;1679393;85;21062;-80
2021/06/19 00:39:40;;;;;;;6.42;4.80;;;;;;;20.32;62.53;96667.45;1695139;84;21397;-80
2021/06/19 00:42:06;;;;;;;5.62;4.72;;;;;;;20.27;62.67;96680.55;1665741;86;21001;-80
2021/06/19 00:44:32;;;;;;;5.80;5.05;;;;;;;20.23;62.83;96672.84;1668721;85;20949;-80
2021/06/19 00:46:58;;;;;;;6.60;4.80;;;;;;;20.19;62.86;96671.71;1679465;85;21281;-80
2021/06/19 00:49:25;;;;;;;5.05;4.55;;;;;;;20.15;63.08;96673.71;1694536;85;20891;-80
2021/06/19 00:51:51;;;;;;;5.42;4.92;;;;;;;20.11;63.40;96673.91;1664482;85;21345;-80
2021/06/19 00:54:17;;;;;;;4.90;4.50;;;;;;;20.06;63.71;96673.30;1695274;85;20977;-80
2021/06/19 00:56:43;;;;;;;4.55;4.15;;;;;;;20.03;63.74;96668.50;1665953;86;21049;-80
2021/06/19 00:59:09;;;;;;;5.62;5.08;;;;;;;20.03;63.95;96664.54;1665862;86;20956;-80
2021/06/19 01:01:35;;;;;;;6.08;5.30;;;;;;;20.02;63.91;96663.73;1665718;86;20949;-80
2021/06/19 01:04:02;;;;;;;5.92;5.00;;;;;;;19.98;63.69;96658.62;1665974;86;21255;-80
2021/06/19 01:06:27;;;;;;;5.05;4.60;;;;;;;19.98;63.83;96662.58;1684535;85;20944;-80
2021/06/19 01:08:53;;;;;;;5.03;4.60;;;;;;;19.97;63.93;96662.82;1692478;84;21282;-80
2021/06/19 01:11:21;;;;;;;5.00;4.47;;;;;;;19.90;64.01;96662.97;1651725;86;20956;-80
2021/06/19 01:13:47;;;;;;;4.72;4.33;;;;;;;19.85;64.05;96664.68;1655756;86;21297;-80
2021/06/19 01:16:13;;;;;;;5.42;4.92;;;;;;;19.83;64.11;96665.44;1662918;86;21018;-79
2021/06/19 01:18:38;;;;;;;5.83;4.75;;;;;;;19.84;64.09;96668.35;1663023;86;20990;-80
2021/06/19 01:21:12;;;;;;;6.60;4.55;;;;;;;19.86;64.33;96675.02;1653852;86;21318;-80
2021/06/19 01:23:38;;;;;;;5.58;4.72;;;;;;;19.87;64.38;96665.27;1651125;86;20957;-80
2021/06/19 01:26:04;;;;;;;5.45;4.95;;;;;;;19.83;64.37;96662.28;1684119;85;21265;-80
2021/06/19 01:28:30;;;;;;;5.45;4.95;;;;;;;19.81;64.87;96658.28;1676542;85;20974;-80
2021/06/19 01:30:55;;;;;;;5.70;4.70;;;;;;;19.79;64.62;96659.83;1676445;85;21520;-79
2021/06/19 01:33:21;;;;;;;5.33;4.80;;;;;;;19.79;64.42;96651.41;1655263;86;21368;-80
2021/06/19 01:35:47;;;;;;;6.00;5.40;;;;;;;19.86;64.00;96659.72;1676494;85;21011;-80
2021/06/19 01:38:12;;;;;;;5.30;4.78;;;;;;;19.91;64.00;96655.86;1676638;85;20979;-80
2021/06/19 01:40:38;;;;;;;6.75;4.60;;;;;;;19.96;63.95;96649.35;1692223;85;21254;-80
2021/06/19 01:43:04;;;;;;;5.92;5.33;;;;;;;20.01;63.64;96652.08;1667673;85;20954;-80
2021/06/19 01:45:32;;;;;;;7.22;5.08;;;;;;;20.06;64.13;96648.23;1674781;85;21264;-79
2021/06/19 01:48:08;;;;;;;5.37;4.92;;;;;;;20.03;64.97;96650.84;1692225;84;20976;-80
2021/06/19 01:50:34;;;;;;;5.70;5.20;;;;;;;20.00;64.84;96659.19;1684715;85;20965;-80
2021/06/19 01:53:01;;;;;;;5.92;5.33;;;;;;;19.99;65.26;96654.95;1684586;85;20977;-80
2021/06/19 01:55:27;;;;;;;6.78;4.92;;;;;;;19.96;64.99;96658.58;1683943;85;20932;-80
2021/06/19 01:57:55;;;;;;;5.22;4.72;;;;;;;19.94;64.89;96660.66;1684332;85;21223;-80
2021/06/19 02:00:24;;;;;;;5.60;5.10;;;;;;;19.89;64.92;96656.09;1684733;85;21289;-80
2021/06/19 02:02:50;;;;;;;5.67;5.12;;;;;;;19.85;64.94;96658.09;1684024;85;20953;-80
2021/06/19 02:05:17;;;;;;;5.70;4.97;;;;;;;19.77;64.77;96653.48;1692577;85;21009;-80
2021/06/19 02:08:01;;;;;;;5.62;5.17;;;;;;;19.72;65.00;96657.33;1663465;86;21077;-80
2021/06/19 02:10:30;;;;;;;6.15;5.62;;;;;;;19.68;65.20;96654.05;1673270;85;21034;-80
2021/06/19 02:12:56;;;;;;;6.92;5.45;;;;;;;19.62;65.16;96648.41;1669330;85;21048;-80
2021/06/19 02:15:22;;;;;;;5.35;4.85;;;;;;;19.57;65.25;96647.79;1670316;85;21323;-80
2021/06/19 02:17:48;;;;;;;5.28;4.78;;;;;;;19.50;65.21;96647.06;1674644;85;21004;-80
2021/06/19 02:20:15;;;;;;;5.97;5.22;;;;;;;19.45;65.56;96648.28;1674690;85;21072;-80
2021/06/19 02:22:41;;;;;;;5.65;5.10;;;;;;;19.42;65.48;96645.59;1674547;85;20946;-80
2021/06/19 02:25:10;;;;;;;6.65;6.05;;;;;;;19.39;65.70;96649.22;1674365;85;20927;-80
2021/06/19 02:27:36;;;;;;;5.70;5.25;;;;;;;19.37;65.67;96648.65;1674682;86;21312;-80
2021/06/19 02:30:04;;;;;;;5.92;5.33;;;;;;;19.35;65.54;96653.33;1674189;85;20965;-80
2021/06/19 02:32:29;;;;;;;6.83;6.10;;;;;;;19.36;65.76;96655.75;1673739;85;21269;-80
2021/06/19 02:34:55;;;;;;;5.70;5.20;;;;;;;19.35;65.69;96655.95;1672384;85;20968;-80
2021/06/19 02:37:21;;;;;;;5.87;5.35;;;;;;;19.34;65.62;96663.06;1657603;85;21036;-80
2021/06/19 02:39:46;;;;;;;7.30;5.87;;;;;;;19.32;65.72;96659.05;1674516;86;21302;-80
2021/06/19 02:42:12;;;;;;;6.35;5.75;;;;;;;19.30;65.75;96659.80;1655927;85;20987;-80
2021/06/19 02:44:38;;;;;;;6.20;5.60;;;;;;;19.31;65.91;96666.16;1674563;85;20979;-80
2021/06/19 02:47:04;;;;;;;6.65;6.00;;;;;;;19.29;65.87;96667.42;1674003;85;21311;-80
2021/06/19 02:49:30;;;;;;;6.17;5.58;;;;;;;19.26;66.17;96658.67;1649046;85;20946;-80
2021/06/19 02:51:57;;;;;;;6.45;5.85;;;;;;;19.22;66.26;96658.33;1667347;85;20910;-80
2021/06/19 02:54:22;;;;;;;6.70;5.80;;;;;;;19.14;66.28;96659.46;1674573;85;20959;-80
2021/06/19 02:56:48;;;;;;;6.08;5.30;;;;;;;19.14;66.59;96649.44;1674749;86;20995;-80
2021/06/19 02:59:14;;;;;;;6.65;5.97;;;;;;;19.15;66.66;96660.27;1674723;85;21288;-80
2021/06/19 03:01:40;;;;;;;6.28;5.45;;;;;;;19.17;66.70;96662.95;1674479;85;20973;-80
2021/06/19 03:04:05;;;;;;;6.70;5.97;;;;;;;19.21;66.63;96666.47;1674638;85;20945;-80
2021/06/19 03:06:31;;;;;;;6.47;5.87;;;;;;;19.23;66.54;96661.25;1674567;85;21612;-80
2021/06/19 03:08:57;;;;;;;6.97;6.28;;;;;;;19.26;66.41;96664.73;1674372;85;20995;-80
2021/06/19 03:11:22;;;;;;;6.00;5.20;;;;;;;19.29;66.68;96666.11;1674623;85;20947;-80
2021/06/19 03:13:48;;;;;;;7.25;6.53;;;;;;;19.26;66.78;96662.10;1674585;85;20944;-80
2021/06/19 03:16:14;;;;;;;5.87;5.37;;;;;;;19.29;66.88;96670.86;1674800;86;21224;-80
2021/06/19 03:18:40;;;;;;;7.00;6.30;;;;;;;19.30;67.01;96671.14;1674501;85;20947;-79
2021/06/19 03:21:07;;;;;;;7.03;5.92;;;;;;;19.30;67.05;96669.03;1629284;86;20995;-80
2021/06/19 03:23:32;;;;;;;6.70;6.10;;;;;;;19.30;67.28;96668.51;1659686;85;20991;-80
2021/06/19 03:25:58;;;;;;;6.92;6.25;;;;;;;19.29;67.37;96673.50;1671814;85;21268;-80
2021/06/19 03:28:24;;;;;;;6.58;5.62;;;;;;;19.27;67.61;96672.13;1647595;86;20982;-80
2021/06/19 03:30:50;;;;;;;6.22;5.72;;;;;;;19.25;67.65;96668.92;1666878;85;20975;-80
2021/06/19 03:33:16;;;;;;;6.20;5.60;;;;;;;19.26;67.77;96667.38;1666689;85;21274;-80
2021/06/19 03:35:42;;;;;;;5.95;5.45;;;;;;;19.27;67.95;96662.39;1663099;86;20924;-80
2021/06/19 03:38:08;;;;;;;7.17;5.92;;;;;;;19.29;68.01;96664.27;1674467;85;20975;-80
2021/06/19 03:40:35;;;;;;;7.30;6.25;;;;;;;19.28;68.22;96665.31;1674563;85;20947;-80
2021/06/19 03:43:00;;;;;;;6.33;5.70;;;;;;;19.26;68.48;96667.38;1659667;86;20954;-80
2021/06/19 03:45:34;;;;;;;6.25;5.72;;;;;;;19.24;68.64;96669.95;1659314;85;21259;-80
2021/06/19 03:48:00;;;;;;;6.35;5.72;;;;;;;19.22;68.82;96674.14;1678645;84;20956;-79
2021/06/19 03:50:27;;;;;;;6.97;6.30;;;;;;;19.22;68.91;96673.34;1689934;85;20941;-80
2021/06/19 03:52:55;;;;;;;5.92;5.42;;;;;;;19.24;69.22;96675.22;1676854;85;20973;-80
2021/06/19 03:55:20;;;;;;;6.42;5.55;;;;;;;19.25;69.35;96678.95;1680469;85;20940;-80
2021/06/19 03:57:46;;;;;;;6.42;5.83;;;;;;;19.26;69.34;96676.59;1686200;85;20928;-80
2021/06/19 04:00:17;;;;;;;6.33;5.80;;;;;;;19.28;69.47;96672.41;1677885;85;20967;-80
2021/06/19 04:02:43;;;;;;;6.92;6.33;;;;;;;19.27;69.57;96678.71;1686217;84;20952;-80
2021/06/19 04:05:10;;;;;;;6.65;5.60;;;;;;;19.25;69.50;96670.23;1686097;85;20933;-80
2021/06/19 04:07:36;;;;;;;6.08;5.30;;;;;;;19.24;69.82;96674.70;1670910;85;20917;-80
2021/06/19 04:10:02;;;;;;;6.47;5.85;;;;;;;19.25;69.87;96671.05;1672816;85;20976;-80
2021/06/19 04:12:28;;;;;;;6.15;5.55;;;;;;;19.28;69.96;96669.78;1685455;84;21245;-80
2021/06/19 04:14:54;;;;;;;6.83;6.17;;;;;;;19.30;70.17;96665.88;1685886;84;20916;-80
2021/06/19 04:17:20;;;;;;;6.45;5.80;;;;;;;19.32;70.10;96661.69;1686132;84;20916;-80
2021/06/19 04:19:46;;;;;;;6.60;6.00;;;;;;;19.33;70.21;96662.78;1686465;85;20960;-80
2021/06/19 04:22:12;;;;;;;7.47;6.80;;;;;;;19.35;70.32;96667.30;1686065;85;21007;-80
2021/06/19 04:24:39;;;;;;;6.92;6.25;;;;;;;19.37;70.44;96663.14;1685185;85;20925;-80
2021/06/19 04:27:05;;;;;;;6.70;6.10;;;;;;;19.39;70.41;96661.88;1681239;84;20972;-80
2021/06/19 04:29:32;;;;;;;6.83;6.12;;;;;;;19.43;70.12;96660.89;1674806;85;21242;-80
2021/06/19 04:32:01;;;;;;;6.65;6.05;;;;;;;19.50;70.53;96662.36;1675696;85;20951;-80
2021/06/19 04:34:26;;;;;;;6.75;6.10;;;;;;;19.55;70.41;96664.88;1670430;85;20936;-80
2021/06/19 04:36:53;;;;;;;7.55;6.30;;;;;;;19.56;70.47;96665.16;1684759;85;20936;-80
2021/06/19 04:39:19;;;;;;;6.67;5.92;;;;;;;19.58;70.72;96663.89;1670263;85;20991;-80
2021/06/19 04:42:00;;;;;;;7.58;6.00;;;;;;;19.58;70.66;96658.62;1679090;85;20912;-80
2021/06/19 04:46:50;;;;;;;6.67;6.08;;;;;;;19.67;70.61;96661.16;1685185;84;21272;-79
2021/06/19 04:49:16;;;;;;;7.72;5.67;;;;;;;19.71;70.42;96657.57;1655173;84;21040;-80
2021/06/19 04:51:42;;;;;;;6.92;6.33;;;;;;;19.75;70.33;96660.82;1685162;85;20944;-80
2021/06/19 04:54:08;;;;;;;6.55;6.00;;;;;;;19.81;70.25;96660.91;1684885;85;21363;-80
2021/06/19 04:56:34;;;;;;;6.67;6.08;;;;;;;19.84;70.33;96665.20;1660387;85;21008;-80
2021/06/19 04:59:01;;;;;;;6.35;5.85;;;;;;;19.85;70.61;96665.52;1686351;84;20929;-80
2021/06/19 05:01:28;;;;;;;8.33;6.37;;;;;;;19.89;70.78;96668.48;1685847;85;20977;-80
2021/06/19 05:03:53;;;;;;;5.85;5.33;;;;;;;19.93;70.85;96670.41;1685005;85;20920;-80
2021/06/19 05:06:19;;;;;;;6.08;5.50;;;;;;;19.94;70.79;96669.88;1685983;85;20919;-80
2021/06/19 05:08:45;;;;;;;7.72;6.08;;;;;;;19.96;70.79;96663.34;1666515;85;21280;-80
2021/06/19 05:11:11;;;;;;;6.25;5.65;;;;;;;20.00;70.95;96663.66;1689127;84;20972;-79
2021/06/19 05:13:36;;;;;;;5.95;5.37;;;;;;;20.02;70.85;96663.73;1689066;84;20959;-80
2021/06/19 05:16:02;;;;;;;5.62;5.12;;;;;;;20.03;70.75;96665.86;1667758;85;20998;-80
2021/06/19 05:18:28;;;;;;;6.12;5.53;;;;;;;20.05;70.77;96667.22;1666291;85;20928;-79
2021/06/19 05:20:55;;;;;;;5.62;5.10;;;;;;;20.08;70.60;96672.02;1688287;84;20936;-80
2021/06/19 05:23:21;;;;;;;5.87;5.37;;;;;;;20.11;70.39;96671.27;1689816;84;20997;-80
2021/06/19 05:25:47;;;;;;;6.00;5.42;;;;;;;20.13;70.64;96670.52;1673408;84;21350;-80
2021/06/19 05:28:13;;;;;;;5.53;5.08;;;;;;;20.16;70.64;96670.04;1687586;85;20990;-79
2021/06/19 05:30:38;;;;;;;5.30;4.80;;;;;;;20.18;70.62;96667.99;1690262;84;20917;-80
2021/06/19 05:33:06;;;;;;;6.75;5.62;;;;;;;20.22;70.76;96664.64;1695285;85;21381;-80
2021/06/19 05:35:32;;;;;;;7.10;5.40;;;;;;;20.27;70.74;96664.72;1665923;85;20999;-80
2021/06/19 05:37:58;;;;;;;6.12;5.53;;;;;;;20.32;70.79;96663.48;1679453;85;20949;-80
2021/06/19 05:40:24;;;;;;;5.35;4.85;;;;;;;20.38;70.99;96658.61;1679620;85;21304;-80
2021/06/19 05:42:51;;;;;;;6.50;5.90;;;;;;;20.43;70.92;96656.59;1679568;85;20994;-80
2021/06/19 05:45:17;;;;;;;6.50;5.90;;;;;;;20.48;71.00;96662.47;1682678;85;20998;-80
2021/06/19 05:47:43;;;;;;;6.08;5.37;;;;;;;20.53;70.94;96665.22;1660599;85;20952;-80
2021/06/19 05:50:10;;;;;;;7.00;5.62;;;;;;;20.60;70.24;96665.86;1679499;85;20988;-80
2021/06/19 05:52:36;;;;;;;5.72;5.22;;;;;;;20.67;69.69;96673.13;1674651;84;20986;-80
2021/06/19 05:55:01;;;;;;;6.10;5.50;;;;;;;20.74;69.35;96671.13;1666051;86;20961;-80
2021/06/19 05:57:27;;;;;;;7.03;6.37;;;;;;;20.81;69.20;96679.68;1659106;85;21395;-80
2021/06/19 05:59:53;;;;;;;7.05;6.35;;;;;;;20.90;69.29;96678.78;1695330;84;20916;-80
2021/06/19 06:02:19;;;;;;;7.00;6.40;;;;;;;20.94;69.48;96679.38;1666062;86;20964;-80
2021/06/19 06:04:44;;;;;;;6.50;5.97;;;;;;;20.98;69.84;96680.48;1665947;86;21258;-80
2021/06/19 06:07:10;;;;;;;6.62;5.87;;;;;;;21.05;69.81;96681.67;1665858;86;20936;-80
2021/06/19 06:09:38;;;;;;;7.78;7.08;;;;;;;21.13;69.83;96681.77;1664092;86;21041;-80
2021/06/19 06:12:07;;;;;;;8.35;6.87;;;;;;;21.21;69.97;96680.86;1666098;85;20934;-80
2021/06/19 06:14:35;;;;;;;7.42;6.72;;;;;;;21.33;70.13;96687.41;1692151;84;20987;-80
2021/06/19 06:17:01;;;;;;;8.08;7.33;;;;;;;21.42;70.06;96685.95;1663167;86;20954;-80
2021/06/19 06:19:27;;;;;;;7.67;6.92;;;;;;;21.50;70.18;96684.23;1633774;86;21031;-80
2021/06/19 06:21:53;;;;;;;13.58;8.98;;;;;;;21.56;70.29;96678.48;1660069;86;21302;-80
2021/06/19 06:24:19;;;;;;;8.45;7.65;;;;;;;21.67;70.29;96682.87;1684218;85;20981;-80
2021/06/19 06:26:45;;;;;;;8.88;7.90;;;;;;;21.80;70.52;96685.16;1676033;85;20979;-80
2021/06/19 06:29:11;;;;;;;10.40;8.08;;;;;;;21.87;70.93;96684.97;1676596;85;21296;-80
2021/06/19 06:31:36;;;;;;;9.45;8.45;;;;;;;21.94;71.11;96683.45;1692130;84;20970;-80
2021/06/19 06:34:02;;;;;;;8.78;7.83;;;;;;;22.01;71.34;96683.55;1683239;85;20958;-80
2021/06/19 06:36:28;;;;;;;9.23;7.78;;;;;;;22.13;71.31;96683.47;1676714;85;20963;-80
2021/06/19 06:38:54;;;;;;;8.80;7.90;;;;;;;22.23;71.17;96682.77;1691617;85;21359;-80
2021/06/19 06:41:19;;;;;;;10.50;8.58;;;;;;;22.35;71.00;96685.55;1692531;84;20954;-80
2021/06/19 06:43:45;;;;;;;10.20;8.85;;;;;;;22.49;70.67;96691.27;1691734;85;20944;-80
2021/06/19 06:46:11;;;;;;;10.05;8.88;;;;;;;22.64;70.05;96690.09;1688798;85;20917;-80
2021/06/19 06:48:37;;;;;;;9.28;8.38;;;;;;;22.73;69.98;96690.42;1667471;85;20925;-80
2021/06/19 06:51:03;;;;;;;9.88;8.98;;;;;;;22.85;68.74;96685.80;1682474;85;20941;-80
2021/06/19 06:53:28;;;;;;;9.78;8.90;;;;;;;22.97;67.51;96681.66;1684792;85;21307;-81
2021/06/19 06:55:54;;;;;;;9.75;8.45;;;;;;;23.08;68.51;96676.70;1692328;84;20931;-80
2021/06/19 06:58:20;;;;;;;8.40;7.60;;;;;;;23.15;69.13;96678.63;1665928;85;20908;-80
2021/06/19 07:00:46;;;;;;;9.13;8.23;;;;;;;23.16;69.17;96679.42;1692445;84;20976;-80
2021/06/19 07:03:11;;;;;;;8.48;7.67;;;;;;;23.23;68.75;96674.69;1663018;86;21314;-80
2021/06/19 07:05:37;;;;;;;9.00;7.75;;;;;;;23.35;68.68;96676.10;1692375;84;20949;-80
2021/06/19 07:08:03;;;;;;;8.05;7.35;;;;;;;23.49;67.22;96681.77;1684145;85;20905;-80
2021/06/19 07:10:30;;;;;;;9.60;8.60;;;;;;;23.59;67.16;96679.70;1676377;85;21000;-80
2021/06/19 07:12:56;;;;;;;9.30;8.40;;;;;;;23.63;66.92;96676.84;1676442;85;20998;-80
2021/06/19 07:15:22;;;;;;;9.78;8.20;;;;;;;23.75;66.66;96680.59;1691209;85;21368;-81
2021/06/19 07:17:48;;;;;;;10.60;7.95;;;;;;;23.87;65.72;96682.52;1663151;86;21019;-80
2021/06/19 07:20:15;;;;;;;9.83;7.97;;;;;;;24.00;65.09;96683.38;1662953;86;21007;-80
2021/06/19 07:22:41;;;;;;;8.55;7.83;;;;;;;24.05;65.63;96677.27;1684195;85;20979;-80
2021/06/19 07:25:08;;;;;;;8.13;7.33;;;;;;;24.12;65.02;96681.30;1676249;85;20939;-80
2021/06/19 07:27:35;;;;;;;8.80;6.50;;;;;;;24.27;64.97;96681.88;1676710;85;20924;-81
2021/06/19 07:30:00;;;;;;;7.95;7.25;;;;;;;24.34;64.88;96685.11;1667541;85;20933;-80
2021/06/19 07:32:26;;;;;;;7.87;7.28;;;;;;;24.42;63.67;96677.97;1681779;85;20916;-80
2021/06/19 07:34:52;;;;;;;8.65;7.35;;;;;;;24.51;64.51;96676.38;1691428;84;20926;-80
2021/06/19 07:37:17;;;;;;;8.33;7.50;;;;;;;24.61;64.42;96667.64;1663013;86;20942;-80
2021/06/19 07:39:44;;;;;;;9.73;7.58;;;;;;;24.68;64.24;96668.70;1683958;85;20989;-81
2021/06/19 07:42:10;;;;;;;8.60;7.62;;;;;;;24.72;62.68;96667.89;1667410;85;21326;-80
2021/06/19 07:44:36;;;;;;;8.78;7.97;;;;;;;24.80;61.99;96662.60;1684710;85;20989;-81
2021/06/19 07:47:02;;;;;;;8.95;8.00;;;;;;;24.88;63.55;96664.72;1684821;85;20962;-81
2021/06/19 07:49:28;;;;;;;8.53;7.72;;;;;;;24.94;62.64;96652.24;1672838;85;21239;-79
2021/06/19 07:51:54;;;;;;;8.28;7.47;;;;;;;24.99;62.95;96645.05;1663090;86;21317;-80
2021/06/19 07:54:20;;;;;;;7.62;6.87;;;;;;;25.00;62.08;96644.55;1662914;86;20970;-80
2021/06/19 07:56:47;;;;;;;7.53;6.67;;;;;;;25.08;62.53;96644.83;1651909;86;20985;-80
2021/06/19 07:59:14;;;;;;;8.00;7.30;;;;;;;25.14;62.69;96638.42;1690724;85;20956;-80
2021/06/19 08:01:40;;;;;;;7.72;6.95;;;;;;;25.25;62.36;96640.55;1684533;85;20984;-80
2021/06/19 08:04:05;;;;;;;8.05;7.25;;;;;;;25.32;62.39;96639.72;1692373;85;20957;-80
2021/06/19 08:06:31;;;;;;;7.60;6.90;;;;;;;25.42;61.18;96637.59;1662891;86;21072;-80
2021/06/19 08:08:57;;;;;;;7.53;6.75;;;;;;;25.49;60.14;96634.63;1664698;85;21033;-80
2021/06/19 08:11:23;;;;;;;7.78;6.97;;;;;;;25.60;61.87;96632.22;1650502;86;20955;-80
2021/06/19 08:13:50;;;;;;;7.97;6.85;;;;;;;25.68;60.16;96633.80;1651919;86;20966;-80
2021/06/19 08:16:20;;;;;;;8.25;7.22;;;;;;;25.77;60.10;96631.92;1694404;84;20933;-81
2021/06/19 08:18:45;;;;;;;8.75;7.85;;;;;;;25.86;60.62;96628.94;1673834;85;21025;-80
2021/06/19 08:21:12;;;;;;;10.13;9.08;;;;;;;25.92;60.21;96632.66;1654636;85;21005;-80
2021/06/19 08:23:38;;;;;;;8.73;7.92;;;;;;;25.96;59.76;96632.36;1655309;85;20936;-80
2021/06/19 08:26:03;;;;;;;8.43;7.62;;;;;;;26.09;60.44;96636.84;1674515;85;20935;-81
2021/06/19 08:28:32;;;;;;;8.68;7.95;;;;;;;26.25;59.57;96628.48;1674533;85;20966;-81
2021/06/19 08:30:57;;;;;;;9.45;7.72;;;;;;;26.27;59.85;96633.00;1674174;85;20966;-80
2021/06/19 08:33:22;;;;;;;10.23;8.03;;;;;;;26.36;60.11;96635.92;1674514;85;20896;-81
2021/06/19 08:35:48;;;;;;;9.30;8.25;;;;;;;26.45;59.50;96638.78;1674419;85;21003;-81
2021/06/19 08:38:14;;;;;;;8.98;8.18;;;;;;;26.54;58.87;96637.14;1674404;85;20951;-81
2021/06/19 08:40:40;;;;;;;8.25;7.53;;;;;;;26.61;58.72;96632.28;1674390;85;20983;-80
2021/06/19 08:43:05;;;;;;;7.95;7.25;;;;;;;26.72;58.09;96629.80;1658413;86;21005;-81
2021/06/19 08:45:32;;;;;;;7.15;6.45;;;;;;;26.82;58.23;96635.58;1671670;85;21000;-80
2021/06/19 08:48:02;;;;;;;6.78;5.95;;;;;;;26.89;57.96;96632.06;1674293;85;20943;-81
2021/06/19 08:50:28;;;;;;;8.58;7.22;;;;;;;26.92;55.74;96626.97;1650931;86;21294;-81
2021/06/19 08:52:54;;;;;;;6.80;6.20;;;;;;;27.04;53.58;96636.51;1674512;85;20920;-81
2021/06/19 08:55:20;;;;;;;5.87;5.30;;;;;;;27.17;54.37;96635.83;1674472;85;20937;-81
2021/06/19 08:57:46;;;;;;;7.20;6.47;;;;;;;27.35;53.75;96640.48;1673519;85;20967;-81
2021/06/19 09:00:14;;;;;;;6.28;5.67;;;;;;;27.44;54.75;96641.44;1674678;85;21030;-81
2021/06/19 09:02:39;;;;;;;6.97;6.37;;;;;;;27.51;52.91;96633.91;1674509;85;21309;-81
2021/06/19 09:05:10;;;;;;;7.10;6.40;;;;;;;27.69;53.21;96636.41;1674450;85;20987;-81
2021/06/19 09:07:49;;;;;;;8.28;6.55;;;;;;;27.79;54.25;96637.59;1674133;85;20939;-81
2021/06/19 09:10:29;;;;;;;7.55;6.78;;;;;;;27.89;54.73;96632.69;1663817;85;21068;-82
2021/06/19 09:13:06;;;;;;;7.50;6.55;;;;;;;28.05;54.85;96635.42;1654563;86;20958;-81
2021/06/19 09:15:37;;;;;;;7.60;6.83;;;;;;;28.15;53.08;96633.17;1662985;86;21326;-81
2021/06/19 09:18:16;;;;;;;7.12;6.50;;;;;;;28.19;53.48;96636.84;1663135;86;21039;-81
2021/06/19 09:21:00;;;;;;;6.37;5.85;;;;;;;28.25;53.87;96633.55;1655363;86;20984;-81
2021/06/19 09:23:39;;;;;;;9.25;7.33;;;;;;;28.33;54.10;96633.74;1644196;86;20977;-81
2021/06/19 09:26:19;;;;;;;6.80;6.17;;;;;;;28.33;52.47;96634.28;1648205;85;20933;-81
2021/06/19 09:29:14;;;;;;;6.70;5.80;;;;;;;28.31;51.37;96627.90;1655302;86;20935;-81
2021/06/19 09:31:49;;;;;;;6.80;6.12;;;;;;;28.35;51.17;96627.56;1655080;86;21088;-80
2021/06/19 09:34:24;;;;;;;6.62;6.08;;;;;;;28.40;51.99;96630.70;1662953;86;20921;-81
2021/06/19 09:36:57;;;;;;;6.90;5.97;;;;;;;28.41;52.21;96624.27;1662933;86;20988;-81
2021/06/19 09:39:26;;;;;;;6.92;6.30;;;;;;;28.47;51.83;96626.31;1662962;86;21013;-80
2021/06/19 09:41:58;;;;;;;6.72;6.12;;;;;;;28.54;52.52;96630.22;1633212;87;20981;-80
2021/06/19 09:44:38;;;;;;;7.03;6.42;;;;;;;28.57;52.23;96627.51;1634738;88;20921;-81
2021/06/19 09:47:05;;;;;;;6.30;5.70;;;;;;;28.59;51.75;96622.12;1655188;86;20958;-81
2021/06/19 09:49:35;;;;;;;7.20;6.50;;;;;;;28.68;51.95;96625.73;1654041;87;21214;-80
2021/06/19 09:52:02;;;;;;;7.20;6.60;;;;;;;28.58;51.63;96621.87;1662673;86;21004;-81
2021/06/19 09:54:27;;;;;;;6.67;6.08;;;;;;;28.63;52.53;96625.79;1662799;86;20964;-81
2021/06/19 09:56:59;;;;;;;6.50;5.47;;;;;;;28.70;51.07;96628.11;1622482;87;20940;-80
2021/06/19 09:59:34;;;;;;;6.08;5.60;;;;;;;28.62;49.17;96622.87;1662066;86;21304;-81
2021/06/19 10:02:16;;;;;;;6.28;5.60;;;;;;;28.65;51.20;96624.98;1655090;87;20941;-80
2021/06/19 10:04:43;;;;;;;5.55;5.15;;;;;;;28.73;50.17;96622.72;1662920;86;21045;-81
2021/06/19 10:07:08;;;;;;;5.97;5.47;;;;;;;28.69;49.57;96617.96;1622057;86;21044;-80
2021/06/19 10:09:34;;;;;;;6.33;5.55;;;;;;;28.71;50.00;96617.67;1664771;84;21370;-81
2021/06/19 10:12:00;;;;;;;6.22;5.62;;;;;;;28.77;49.47;96619.16;1636658;86;20989;-81
2021/06/19 10:14:27;;;;;;;6.42;5.25;;;;;;;28.83;50.22;96617.22;1649106;87;21044;-81
2021/06/19 10:16:55;;;;;;;5.67;5.20;;;;;;;28.85;50.01;96622.52;1678119;85;21007;-81
2021/06/19 10:19:23;;;;;;;6.45;5.45;;;;;;;28.92;49.56;96616.81;1678086;85;21007;-81
2021/06/19 10:21:53;;;;;;;6.10;5.50;;;;;;;28.91;48.99;96613.89;1672691;85;20993;-81
2021/06/19 10:24:21;;;;;;;5.67;5.17;;;;;;;28.89;48.40;96614.19;1672751;85;21035;-81
2021/06/19 10:26:47;;;;;;;5.22;4.72;;;;;;;28.92;48.86;96613.59;1672445;86;21009;-81
2021/06/19 10:29:13;;;;;;;6.20;5.60;;;;;;;28.96;49.64;96618.63;1671685;85;20972;-81
2021/06/19 10:31:43;;;;;;;5.85;4.90;;;;;;;29.00;48.67;96608.13;1672829;85;21260;-81
2021/06/19 10:34:29;;;;;;;6.00;5.40;;;;;;;29.06;50.40;96610.95;1678336;85;20999;-80
2021/06/19 10:37:01;;;;;;;4.90;4.50;;;;;;;29.08;48.97;96612.79;1669980;86;20987;-81
2021/06/19 10:39:44;;;;;;;4.97;4.47;;;;;;;29.10;49.01;96616.50;1678049;85;21051;-81
2021/06/19 10:42:28;;;;;;;6.58;4.78;;;;;;;29.07;47.93;96612.54;1675589;85;20976;-80
2021/06/19 10:45:06;;;;;;;5.12;4.37;;;;;;;29.11;48.53;96611.41;1672817;85;20947;-81
2021/06/19 10:47:35;;;;;;;5.53;5.00;;;;;;;29.15;46.87;96603.85;1672352;85;20987;-81
2021/06/19 10:50:01;;;;;;;4.00;3.70;;;;;;;29.15;49.23;96607.07;1678340;85;21297;-81
2021/06/19 10:52:37;;;;;;;5.08;3.83;;;;;;;29.12;45.54;96608.97;1672425;85;20962;-81
2021/06/19 10:55:15;;;;;;;6.22;3.47;;;;;;;29.10;46.10;96606.59;1655652;86;20896;-81
2021/06/19 10:57:51;;;;;;;5.08;3.42;;;;;;;29.18;45.61;96605.14;1669390;86;20955;-80
2021/06/19 11:00:45;;;;;;;4.33;2.87;;;;;;;29.24;44.84;96599.93;1655589;86;20944;-80
2021/06/19 11:03:11;;;;;;;4.20;3.20;;;;;;;29.26;45.64;96599.88;1666159;86;21074;-81
2021/06/19 11:05:51;;;;;;;3.98;2.90;;;;;;;29.27;45.32;96601.47;1648442;86;21044;-81
2021/06/19 11:08:17;;;;;;;4.80;3.08;;;;;;;29.27;45.06;96597.45;1663465;86;20924;-81
2021/06/19 11:10:49;;;;;;;3.20;2.90;;;;;;;29.34;46.53;96594.41;1671337;85;21047;-80
2021/06/19 11:13:34;;;;;;;3.67;2.87;;;;;;;29.36;45.74;96592.77;1676471;85;21232;-81
2021/06/19 11:16:04;;;;;;;5.17;2.65;;;;;;;29.35;45.11;96581.27;1675300;85;21293;-81
2021/06/19 11:18:54;;;;;;;3.42;3.00;;;;;;;29.36;43.29;96578.05;1675853;85;21279;-81
2021/06/19 11:21:35;;;;;;;3.62;2.60;;;;;;;29.41;45.20;96585.97;1653677;85;20979;-80
2021/06/19 11:24:06;;;;;;;3.20;2.27;;;;;;;29.41;44.13;96572.59;1672301;85;20993;-81
2021/06/19 11:29:40;;;;;;;3.17;2.87;;;;;;;29.52;43.35;96568.66;1693167;85;20942;-81
2021/06/19 11:32:29;;;;;;;3.45;3.00;;;;;;;29.59;43.21;96576.52;1651485;86;21000;-81
2021/06/19 11:34:58;;;;;;;4.03;2.87;;;;;;;29.67;43.13;96574.25;1654896;86;20930;-81
2021/06/19 11:37:24;;;;;;;3.42;3.00;;;;;;;29.76;43.68;96569.22;1674505;85;20957;-81
2021/06/19 11:39:50;;;;;;;5.12;2.70;;;;;;;29.71;43.56;96569.88;1673654;85;21045;-81
2021/06/19 11:42:16;;;;;;;3.67;2.52;;;;;;;29.75;42.83;96565.50;1652339;86;21015;-81